Time;durP1;ratioP1;P1;durP2;ratioP2;P2;SDS_P1;SDS_P2;PMS_P1;PMS_P2;Temp;Humidity;BMP_temperature;BMP_pressure;BME280_temperature;BME280_humidity;BME280_pressure;Samples;Min_cycle;Max_cycle;Signal;HPM_P1;HPM_P2
2022/11/11 00:05:00;;;;;;;17.00;6.17;;;;;;;10.75;100.00;101743.05;3586051;81;99121;-90
2022/11/11 00:10:01;;;;;;;18.23;5.97;;;;;;;10.76;99.93;101746.61;3595058;82;32572;-91
2022/11/11 00:15:02;;;;;;;14.63;5.75;;;;;;;10.77;99.86;101753.16;3565621;81;99344;-91
2022/11/11 00:25:22;;;;;;;15.85;6.28;;;;;;;10.77;99.68;101752.34;3485584;82;99034;-91
2022/11/11 00:30:23;;;;;;;16.73;6.93;;;;;;;10.79;99.62;101758.33;3594610;81;32149;-90
2022/11/11 00:40:42;;;;;;;15.58;6.55;;;;;;;10.80;99.49;101764.84;3532649;82;32530;-92
2022/11/11 00:45:43;;;;;;;24.23;7.80;;;;;;;10.81;99.42;101769.23;3504727;82;98713;-92
2022/11/11 00:50:59;;;;;;;19.60;7.43;;;;;;;10.81;99.35;101764.28;3475947;83;32619;-91
2022/11/11 00:56:00;;;;;;;16.23;5.80;;;;;;;10.81;99.27;101760.15;3508627;82;98805;-91
2022/11/11 01:01:00;;;;;;;13.40;6.30;;;;;;;10.79;99.22;101748.69;3538496;82;31653;-90
2022/11/11 01:06:04;;;;;;;18.23;5.67;;;;;;;10.77;99.17;101749.59;3510945;83;99007;-91
2022/11/11 01:11:15;;;;;;;14.05;6.10;;;;;;;10.76;99.17;101754.31;3519887;83;33401;-88
2022/11/11 01:16:21;;;;;;;13.98;5.72;;;;;;;10.75;99.07;101747.77;3514064;82;99342;-91
2022/11/11 01:21:24;;;;;;;16.55;6.15;;;;;;;10.75;99.09;101753.27;3511902;83;26450;-93
2022/11/11 01:26:27;;;;;;;20.40;5.17;;;;;;;10.75;99.04;101758.19;3491173;82;98989;-92
2022/11/11 01:31:28;;;;;;;11.65;4.95;;;;;;;10.76;98.98;101757.06;3586370;82;32917;-90
2022/11/11 01:36:29;;;;;;;16.20;5.30;;;;;;;10.76;98.99;101771.39;3573778;81;99030;-91
2022/11/11 01:41:37;;;;;;;18.47;6.17;;;;;;;10.75;99.01;101769.80;3578314;82;31628;-89
2022/11/11 01:46:46;;;;;;;13.38;5.08;;;;;;;10.76;99.02;101765.33;3566003;82;98726;-90
2022/11/11 01:52:04;;;;;;;15.23;5.28;;;;;;;10.74;99.03;101771.73;3574892;82;32939;-89
2022/11/11 01:57:14;;;;;;;13.78;4.97;;;;;;;10.76;98.97;101756.25;3574604;82;98892;-90
2022/11/11 02:02:22;;;;;;;14.28;6.10;;;;;;;10.66;98.93;101718.98;3577102;82;32938;-91
2022/11/11 02:07:25;;;;;;;12.63;5.58;;;;;;;10.75;98.90;101720.23;3570428;82;98744;-88
2022/11/11 02:17:49;;;;;;;11.78;4.97;;;;;;;10.72;98.76;101713.47;3571568;82;98659;-89
2022/11/11 02:23:13;;;;;;;15.98;6.55;;;;;;;10.73;98.75;101708.18;3579619;82;32946;-89
2022/11/11 02:28:15;;;;;;;16.40;5.50;;;;;;;10.74;98.65;101711.75;3574202;82;98706;-89
2022/11/11 02:33:15;;;;;;;13.88;5.42;;;;;;;10.71;98.61;101703.60;3581651;82;33388;-91
2022/11/11 02:38:16;;;;;;;17.83;5.27;;;;;;;10.68;98.59;101721.39;3505758;81;98364;-89
2022/11/11 02:43:17;;;;;;;13.53;4.57;;;;;;;10.65;98.56;101733.09;3540436;83;32185;-90
2022/11/11 02:48:18;;;;;;;20.43;5.97;;;;;;;10.62;98.58;101751.66;3534071;82;98317;-88
2022/11/11 02:53:19;;;;;;;16.00;6.83;;;;;;;10.61;98.65;101762.45;3584241;81;31659;-91
2022/11/11 02:58:20;;;;;;;14.97;5.33;;;;;;;10.59;98.61;101773.83;3593647;82;98768;-89
2022/11/11 03:03:21;;;;;;;11.03;5.07;;;;;;;10.56;98.59;101758.55;3606108;80;31733;-91
2022/11/11 03:08:22;;;;;;;13.60;5.23;;;;;;;10.48;98.77;101764.98;3657617;79;98353;-91
2022/11/11 03:13:22;;;;;;;15.25;5.70;;;;;;;10.43;98.86;101767.41;3656970;79;98932;-86
2022/11/11 03:18:23;;;;;;;13.17;5.07;;;;;;;10.40;98.97;101765.33;3599708;80;26158;-89
2022/11/11 03:23:24;;;;;;;19.17;6.20;;;;;;;10.33;99.01;101773.91;3593014;80;98935;-90
2022/11/11 03:28:25;;;;;;;12.90;5.20;;;;;;;10.26;99.07;101772.31;3617922;80;34052;-88
2022/11/11 03:33:26;;;;;;;15.43;5.33;;;;;;;10.22;99.09;101779.64;3612961;80;99049;-91
2022/11/11 03:38:26;;;;;;;14.20;5.23;;;;;;;10.18;99.17;101780.08;3684452;80;34951;-91
2022/11/11 03:43:30;;;;;;;16.27;5.63;;;;;;;10.12;99.26;101789.70;3678734;79;98782;-88
2022/11/11 03:48:33;;;;;;;14.40;4.93;;;;;;;10.07;99.31;101787.98;3636436;80;26050;-90
2022/11/11 03:53:34;;;;;;;16.00;5.35;;;;;;;10.04;99.38;101784.52;3639248;79;98623;-91
2022/11/11 03:58:34;;;;;;;15.03;5.20;;;;;;;9.99;99.43;101786.11;3658975;79;26405;-90
2022/11/11 04:30:12;;;;;;;13.93;5.53;;;;;;;9.57;99.95;101751.60;3674629;80;31762;-90
2022/11/11 04:35:13;;;;;;;12.37;4.57;;;;;;;9.51;99.99;101758.45;3643029;79;98391;-90
2022/11/11 04:45:35;;;;;;;15.85;5.37;;;;;;;9.41;100.00;101772.60;3595470;80;98838;-91
2022/11/11 04:50:42;;;;;;;11.40;4.83;;;;;;;9.34;100.00;101781.97;3604315;80;26316;-90
2022/11/11 05:01:03;;;;;;;13.20;5.30;;;;;;;9.17;100.00;101785.41;3744458;77;31787;-89
2022/11/11 05:11:31;;;;;;;11.63;5.65;;;;;;;8.99;100.00;101775.11;3739977;78;31616;-90
2022/11/11 05:22:00;;;;;;;21.87;5.87;;;;;;;8.89;100.00;101782.94;3748189;78;31699;-91
2022/11/11 05:27:01;;;;;;;12.87;5.83;;;;;;;8.83;100.00;101775.45;3678018;79;98641;-91
2022/11/11 05:32:03;;;;;;;14.53;6.17;;;;;;;8.77;100.00;101790.51;3668478;79;28751;-91
2022/11/11 05:37:04;;;;;;;14.50;5.75;;;;;;;8.72;100.00;101806.37;3641479;78;98538;-91
2022/11/11 05:42:05;;;;;;;13.77;6.23;;;;;;;8.66;100.00;101804.38;3634917;80;26384;-90
2022/11/11 05:47:06;;;;;;;16.27;7.67;;;;;;;8.60;100.00;101793.35;3639787;79;98675;-91
2022/11/11 05:52:13;;;;;;;17.53;6.80;;;;;;;8.42;100.00;101791.02;3647177;79;35574;-92
2022/11/11 05:57:13;;;;;;;;;;;;;;;8.42;100.00;101791.02;3619301;79;98526;-91
2022/11/11 06:02:15;;;;;;;13.90;6.50;;;;;;;8.46;100.00;101802.36;3615642;80;26497;-91
2022/11/11 06:07:16;;;;;;;17.20;7.13;;;;;;;8.37;100.00;101795.31;3647183;79;98494;-94
2022/11/11 06:12:17;;;;;;;17.80;7.10;;;;;;;8.31;100.00;101801.56;3664341;79;34880;-93
2022/11/11 06:17:18;;;;;;;15.43;6.87;;;;;;;8.25;100.00;101801.50;3655004;79;98600;-90
2022/11/11 06:22:54;;;;;;;21.13;7.43;;;;;;;8.20;100.00;101811.83;3666495;79;35448;-90
2022/11/11 06:27:21;;;;;;;13.60;6.93;;;;;;;8.15;100.00;101793.59;3611734;79;98284;-91
2022/11/11 06:32:22;;;;;;;18.70;7.57;;;;;;;8.11;100.00;101814.56;3612953;81;34837;-90
2022/11/11 06:37:23;;;;;;;14.80;6.33;;;;;;;8.07;100.00;101806.75;3610800;80;98602;-89
2022/11/11 06:42:24;;;;;;;17.50;7.53;;;;;;;8.04;100.00;101796.45;3615195;80;34946;-89
2022/11/11 06:47:24;;;;;;;16.17;7.40;;;;;;;8.04;100.00;101784.67;3608664;80;98580;-90
2022/11/11 06:52:25;;;;;;;13.40;6.80;;;;;;;8.03;100.00;101787.99;3614168;80;34872;-91
2022/11/11 06:57:26;;;;;;;16.40;7.30;;;;;;;8.03;100.00;101787.99;3611622;80;98391;-92
2022/11/11 07:02:27;;;;;;;21.30;7.63;;;;;;;8.06;100.00;101790.62;3620937;80;26409;-91
2022/11/11 07:07:28;;;;;;;16.87;6.90;;;;;;;8.07;100.00;101799.11;3653343;79;98868;-90
2022/11/11 07:12:29;;;;;;;21.30;7.47;;;;;;;8.10;100.00;101795.14;3697843;78;33511;-91
2022/11/11 07:17:30;;;;;;;14.60;6.97;;;;;;;8.14;100.00;101801.59;3653827;79;98535;-92
2022/11/11 07:22:34;;;;;;;15.83;6.72;;;;;;;8.16;100.00;101797.13;3654179;79;26520;-92
2022/11/11 07:27:39;;;;;;;18.92;6.17;;;;;;;8.19;100.00;101804.13;3672168;79;98758;-92
2022/11/11 07:32:49;;;;;;;15.90;7.03;;;;;;;8.23;100.00;101816.09;3677368;79;34028;-86
2022/11/11 07:37:50;;;;;;;17.48;6.97;;;;;;;8.26;100.00;101815.45;3669574;79;98472;-88
2022/11/11 07:42:51;;;;;;;18.50;6.87;;;;;;;8.32;100.00;101813.31;3675564;79;34803;-88
2022/11/11 07:47:52;;;;;;;19.03;7.27;;;;;;;8.38;100.00;101813.37;3672233;79;98492;-89
2022/11/11 07:52:52;;;;;;;18.63;7.37;;;;;;;8.43;100.00;101809.89;3678912;79;28147;-87
2022/11/11 07:57:53;;;;;;;14.67;6.77;;;;;;;8.49;100.00;101800.34;3673317;79;98409;-89
2022/11/11 08:02:54;;;;;;;20.07;7.17;;;;;;;8.53;100.00;101812.83;3661434;79;33046;-91
2022/11/11 08:07:55;;;;;;;20.03;6.77;;;;;;;8.59;100.00;101821.94;3668721;78;98506;-91
2022/11/11 08:18:15;;;;;;;18.95;7.53;;;;;;;8.75;100.00;101822.17;3671663;79;98058;-88
2022/11/11 08:23:21;;;;;;;16.77;6.50;;;;;;;8.84;100.00;101819.61;3678914;79;26316;-88
2022/11/11 08:28:18;;;;;;;17.48;7.37;;;;;;;8.94;100.00;101826.68;3672897;78;98588;-91
2022/11/11 08:33:19;;;;;;;17.97;6.70;;;;;;;9.03;100.00;101848.83;3673843;79;26520;-92
2022/11/11 08:38:22;;;;;;;15.83;6.17;;;;;;;9.14;100.00;101851.42;3672259;78;98517;-90
2022/11/11 08:43:25;;;;;;;17.67;7.42;;;;;;;9.22;100.00;101853.30;3585203;81;98559;-86
2022/11/11 08:48:26;;;;;;;19.67;7.90;;;;;;;9.30;100.00;101847.52;3578324;81;34868;-87
2022/11/11 08:53:27;;;;;;;15.80;6.80;;;;;;;9.38;100.00;101855.69;3565761;82;98806;-93
2022/11/11 08:58:29;;;;;;;16.27;6.72;;;;;;;9.48;100.00;101864.13;3572233;82;34892;-87
2022/11/11 09:03:30;;;;;;;14.37;6.80;;;;;;;9.56;100.00;101866.00;3571425;81;98520;-87
2022/11/11 09:08:31;;;;;;;14.10;6.30;;;;;;;9.65;100.00;101870.28;3538426;82;26545;-88
2022/11/11 09:13:32;;;;;;;13.80;5.97;;;;;;;9.74;100.00;101871.58;3500998;83;98475;-88
2022/11/11 09:18:34;;;;;;;15.83;7.00;;;;;;;9.83;100.00;101870.39;3488322;83;26306;-87
2022/11/11 09:23:35;;;;;;;14.57;6.57;;;;;;;9.95;100.00;101880.62;3557338;80;98685;-88
2022/11/11 09:28:35;;;;;;;12.77;6.13;;;;;;;10.10;100.00;101891.03;3684807;79;25870;-87
2022/11/11 09:33:36;;;;;;;15.57;6.47;;;;;;;10.20;100.00;101891.98;3671252;79;100582;-87
2022/11/11 09:38:37;;;;;;;16.70;6.10;;;;;;;10.28;100.00;101886.40;3679402;79;32548;-87
2022/11/11 09:43:54;;;;;;;18.37;6.87;;;;;;;10.38;100.00;101898.91;3666496;79;99187;-85
2022/11/11 09:49:17;;;;;;;12.98;5.15;;;;;;;10.48;100.00;101896.52;3613140;80;34824;-86
2022/11/11 09:54:42;;;;;;;13.00;5.65;;;;;;;10.59;100.00;101896.34;3549556;81;99266;-89
2022/11/11 09:59:48;;;;;;;17.32;6.45;;;;;;;10.72;100.00;101886.12;3597151;81;34746;-87
2022/11/11 10:05:00;;;;;;;12.58;4.97;;;;;;;10.83;100.00;101896.92;3605549;80;99292;-86
2022/11/11 10:10:10;;;;;;;18.42;6.10;;;;;;;10.91;99.65;101887.77;3653932;79;35438;-91
2022/11/11 10:15:13;;;;;;;14.87;5.70;;;;;;;10.98;99.56;101870.90;3643269;80;98707;-91
2022/11/11 10:20:31;;;;;;;15.23;6.15;;;;;;;11.10;98.79;101868.69;3658763;79;34917;-86
2022/11/11 10:25:33;;;;;;;14.38;5.28;;;;;;;11.19;98.52;101851.47;3627513;79;99088;-89
2022/11/11 10:30:34;;;;;;;10.85;4.40;;;;;;;11.28;98.22;101861.81;3630635;80;34844;-85
2022/11/11 10:35:37;;;;;;;12.70;5.50;;;;;;;11.34;97.55;101851.55;3594962;80;98915;-84
2022/11/11 10:40:53;;;;;;;13.25;5.17;;;;;;;11.40;97.60;101853.51;3603591;81;34791;-87
2022/11/11 10:46:29;;;;;;;14.70;5.65;;;;;;;11.50;97.26;101855.19;3610946;80;98731;-87
2022/11/11 10:51:35;;;;;;;13.45;4.47;;;;;;;11.62;97.16;101847.50;3640577;81;34921;-87
2022/11/11 10:56:43;;;;;;;;;;;;;;;11.72;96.53;101851.16;3615188;81;98640;-85
2022/11/11 11:01:57;;;;;;;12.98;4.80;;;;;;;11.80;95.68;101852.39;3637909;81;34771;-86
2022/11/11 11:06:59;;;;;;;9.23;4.15;;;;;;;11.87;96.14;101851.77;3626989;81;98534;-87
2022/11/11 11:12:36;;;;;;;10.78;4.12;;;;;;;11.88;95.42;101851.42;3635765;81;34783;-88
2022/11/11 11:18:09;;;;;;;13.47;4.87;;;;;;;11.94;95.51;101850.02;3631174;80;98727;-88
2022/11/11 11:23:19;;;;;;;9.73;4.35;;;;;;;12.00;95.41;101843.08;3637056;81;35636;-87
2022/11/11 11:28:19;;;;;;;9.03;4.43;;;;;;;12.12;95.71;101850.52;3627929;80;98721;-86
2022/11/11 11:33:20;;;;;;;9.50;3.63;;;;;;;12.15;94.49;101845.08;3537378;83;27078;-88
2022/11/11 11:38:36;;;;;;;11.87;4.53;;;;;;;12.20;94.40;101841.25;3574667;81;98549;-87
2022/11/11 11:43:44;;;;;;;11.70;4.33;;;;;;;12.21;93.51;101845.64;3596860;81;98983;-85
2022/11/11 11:49:12;;;;;;;8.73;3.33;;;;;;;12.26;93.26;101837.10;3602177;81;34762;-90
2022/11/11 11:54:49;;;;;;;11.48;3.80;;;;;;;12.27;92.78;101845.01;3599020;81;98868;-88
2022/11/11 11:59:55;;;;;;;13.73;3.50;;;;;;;12.31;92.22;101852.81;3553889;81;26181;-86
2022/11/11 12:05:16;;;;;;;14.27;3.77;;;;;;;12.33;91.45;101855.23;3589593;80;98778;-86
2022/11/11 12:11:10;;;;;;;10.00;3.90;;;;;;;12.31;91.69;101847.30;3608135;80;34803;-88
2022/11/11 12:16:34;;;;;;;8.13;3.60;;;;;;;12.30;91.28;101849.83;3600036;80;99182;-86
2022/11/11 12:21:58;;;;;;;10.18;3.72;;;;;;;12.21;91.19;101823.56;3604990;81;34901;-89
2022/11/11 12:27:25;;;;;;;10.75;4.12;;;;;;;12.21;91.19;101823.56;3600990;81;98959;-89
2022/11/11 12:33:10;;;;;;;12.20;3.90;;;;;;;12.37;91.13;101851.39;3604420;81;35390;-87
2022/11/11 12:38:26;;;;;;;11.50;4.47;;;;;;;12.40;90.91;101857.60;3575706;81;98519;-85
2022/11/11 12:43:58;;;;;;;15.50;4.42;;;;;;;12.38;90.66;101854.37;3597299;81;98870;-87
2022/11/11 12:49:30;;;;;;;16.90;4.80;;;;;;;12.36;90.73;101848.41;3598276;82;35458;-87
2022/11/11 12:54:48;;;;;;;12.47;4.90;;;;;;;12.26;90.86;101832.37;3567111;82;98937;-87
2022/11/11 13:00:13;;;;;;;14.18;5.33;;;;;;;12.37;91.05;101853.38;3601487;81;34812;-87
2022/11/11 13:05:26;;;;;;;9.68;4.97;;;;;;;12.33;90.99;101857.39;3561363;81;98594;-88
2022/11/11 13:10:46;;;;;;;11.63;4.40;;;;;;;12.34;90.92;101857.64;3561612;80;35465;-89
2022/11/11 13:15:49;;;;;;;13.08;5.72;;;;;;;12.30;90.85;101864.20;3555932;81;98969;-87
2022/11/11 13:20:56;;;;;;;10.90;4.62;;;;;;;12.27;91.00;101862.17;3553341;81;34817;-87
2022/11/11 13:26:00;;;;;;;;;;;;;;;12.25;91.16;101872.73;3526931;83;98770;-89
2022/11/11 13:31:22;;;;;;;10.40;4.40;;;;;;;12.23;90.43;101875.06;3525197;82;35262;-85
2022/11/11 13:36:27;;;;;;;15.50;4.67;;;;;;;12.19;91.19;101869.45;3514264;82;99045;-88
2022/11/11 13:41:38;;;;;;;12.43;4.53;;;;;;;12.13;91.20;101871.43;3559172;82;34880;-88
2022/11/11 13:46:45;;;;;;;15.50;4.97;;;;;;;12.09;91.33;101871.33;3551597;81;99235;-86
2022/11/11 13:51:49;;;;;;;10.35;4.28;;;;;;;12.06;91.43;101872.05;3554300;81;35414;-88
2022/11/11 13:56:52;;;;;;;11.83;4.53;;;;;;;12.04;91.63;101866.66;3547922;82;98481;-87
2022/11/11 14:02:21;;;;;;;13.38;5.03;;;;;;;11.99;91.61;101863.55;3598628;80;35118;-87
2022/11/11 14:07:47;;;;;;;13.83;5.47;;;;;;;11.97;91.82;101860.92;3552939;81;98839;-89
2022/11/11 14:12:59;;;;;;;15.70;4.50;;;;;;;11.93;91.75;101866.94;3560890;81;26532;-88
2022/11/11 14:18:01;;;;;;;28.87;16.02;;;;;;;11.87;91.82;101866.38;3549938;81;98879;-87
2022/11/11 14:23:37;;;;;;;24.15;11.30;;;;;;;11.86;92.00;101874.43;3559338;82;34769;-88
2022/11/11 14:28:55;;;;;;;36.37;18.87;;;;;;;11.78;92.08;101873.98;3560906;81;26328;-89
2022/11/11 14:34:17;;;;;;;18.40;7.80;;;;;;;11.71;92.17;101885.38;3553278;81;99079;-88
2022/11/11 14:39:44;;;;;;;16.07;6.97;;;;;;;11.62;92.32;101880.00;3547389;82;35292;-87
2022/11/11 14:44:45;;;;;;;14.68;5.97;;;;;;;11.57;92.56;101883.00;3488705;82;99121;-87
2022/11/11 14:49:55;;;;;;;11.90;4.77;;;;;;;11.49;92.64;101880.34;3555584;81;28174;-89
2022/11/11 14:55:22;;;;;;;10.20;3.35;;;;;;;11.36;92.93;101890.62;3552636;81;99055;-88
2022/11/11 15:00:30;;;;;;;13.72;4.30;;;;;;;11.25;93.22;101902.45;3553103;81;34837;-87
2022/11/11 15:05:51;;;;;;;9.53;4.33;;;;;;;11.17;93.51;101902.80;3508608;81;99168;-87
2022/11/11 15:11:26;;;;;;;11.20;4.97;;;;;;;11.09;93.68;101907.05;3442337;83;32043;-86
2022/11/11 15:16:38;;;;;;;14.78;5.80;;;;;;;10.99;93.88;101897.86;3512377;82;98800;-89
2022/11/11 15:21:59;;;;;;;25.05;13.05;;;;;;;10.88;94.26;101904.97;3531295;82;35526;-88
2022/11/11 15:27:06;;;;;;;14.47;7.97;;;;;;;10.78;94.39;101908.98;3553514;81;99065;-87
2022/11/11 15:32:21;;;;;;;14.25;8.03;;;;;;;10.69;94.61;101908.86;3572109;81;35470;-87
2022/11/11 15:37:26;;;;;;;15.13;7.27;;;;;;;10.60;94.70;101907.58;3573800;81;98915;-88
2022/11/11 15:42:46;;;;;;;16.20;6.78;;;;;;;10.53;94.89;101903.19;3577454;81;34833;-87
2022/11/11 15:47:48;;;;;;;17.17;8.70;;;;;;;10.40;95.24;101902.13;3571519;81;98954;-87
2022/11/11 15:52:55;;;;;;;16.70;8.38;;;;;;;10.28;95.44;101905.66;3581527;81;35517;-87
2022/11/11 15:58:28;;;;;;;17.85;9.85;;;;;;;10.15;95.61;101919.13;3594023;80;98753;-91
2022/11/11 16:03:41;;;;;;;20.77;10.30;;;;;;;10.07;96.03;101920.02;3566333;82;100753;-90
2022/11/11 16:08:49;;;;;;;18.55;10.93;;;;;;;9.96;96.41;101919.35;3576499;82;34958;-88
2022/11/11 16:13:58;;;;;;;20.12;10.32;;;;;;;9.87;96.65;101928.27;3573100;81;98490;-89
2022/11/11 16:19:14;;;;;;;22.58;13.58;;;;;;;9.78;97.05;101935.77;3578651;81;34803;-88
2022/11/11 16:24:22;;;;;;;22.42;13.03;;;;;;;9.67;97.35;101943.62;3568500;80;98995;-90
2022/11/11 16:29:28;;;;;;;21.75;13.60;;;;;;;9.56;97.60;101945.15;3593451;80;35499;-88
2022/11/11 16:34:34;;;;;;;;;;;;;;;9.47;97.84;101954.00;3598675;80;98562;-89
2022/11/11 16:39:35;;;;;;;28.67;14.25;;;;;;;9.38;98.76;101947.74;3572494;82;35047;-89
2022/11/11 16:44:40;;;;;;;27.87;14.05;;;;;;;9.29;98.39;101947.56;3567865;80;98797;-88
2022/11/11 16:49:42;;;;;;;35.70;18.17;;;;;;;9.19;98.63;101947.94;3579480;81;42124;-89
2022/11/11 16:54:53;;;;;;;45.73;23.60;;;;;;;9.12;98.96;101955.34;3568093;81;98447;-89
2022/11/11 16:59:59;;;;;;;35.45;16.97;;;;;;;9.04;99.23;101953.97;3583101;80;35957;-90
2022/11/11 17:05:00;;;;;;;26.52;13.98;;;;;;;8.96;99.53;101962.52;3560582;82;98531;-89
2022/11/11 17:10:15;;;;;;;29.33;16.57;;;;;;;8.88;99.46;101955.09;3514682;82;26086;-90
2022/11/11 17:15:20;;;;;;;28.60;15.25;;;;;;;8.78;99.56;101960.94;3550789;82;98961;-89
2022/11/11 17:20:21;;;;;;;25.02;13.25;;;;;;;8.71;99.92;101951.04;3581036;82;35358;-88
2022/11/11 17:25:22;;;;;;;22.93;12.60;;;;;;;8.63;100.00;101960.12;3569673;82;98808;-89
2022/11/11 17:30:22;;;;;;;21.20;11.70;;;;;;;8.58;100.00;101949.86;3573531;82;25925;-88
2022/11/11 17:35:23;;;;;;;30.70;15.57;;;;;;;8.51;100.00;101956.42;3566997;82;99167;-88
2022/11/11 17:40:24;;;;;;;35.47;19.10;;;;;;;8.43;100.00;101956.68;3573561;82;25845;-89
2022/11/11 17:45:27;;;;;;;37.07;19.30;;;;;;;8.25;100.00;101935.90;3565004;82;98919;-91
2022/11/11 17:50:27;;;;;;;43.00;22.87;;;;;;;8.30;100.00;101960.39;3574980;82;33144;-90
2022/11/11 17:55:31;;;;;;;36.33;20.73;;;;;;;8.25;100.00;101959.77;3574119;82;98997;-90
2022/11/11 18:00:32;;;;;;;32.98;19.23;;;;;;;8.20;100.00;101958.56;3568067;81;35391;-89
2022/11/11 18:05:34;;;;;;;25.20;14.70;;;;;;;8.15;100.00;101958.69;3531856;82;98926;-90
2022/11/11 18:10:35;;;;;;;27.52;14.35;;;;;;;8.10;100.00;101954.73;3536939;82;34809;-90
2022/11/11 18:15:35;;;;;;;29.63;14.90;;;;;;;8.06;100.00;101957.88;3535031;82;99170;-93
2022/11/11 18:20:36;;;;;;;27.60;13.33;;;;;;;8.03;100.00;101952.50;3528114;82;32995;-92
2022/11/11 18:25:37;;;;;;;24.93;13.43;;;;;;;7.99;100.00;101958.38;3486565;82;98809;-89
2022/11/11 18:30:38;;;;;;;24.20;14.23;;;;;;;7.96;100.00;101950.79;3502072;81;32533;-90
2022/11/11 18:35:38;;;;;;;22.15;12.40;;;;;;;7.94;100.00;101955.80;3490251;82;98773;-89
2022/11/11 18:40:39;;;;;;;25.17;12.93;;;;;;;7.91;100.00;101951.53;3501105;81;33034;-89
2022/11/11 18:45:40;;;;;;;22.87;10.93;;;;;;;7.86;100.00;101959.33;3492344;82;99018;-89
2022/11/11 18:50:41;;;;;;;19.93;10.07;;;;;;;7.83;100.00;101955.87;3491564;83;25921;-88
2022/11/11 18:55:41;;;;;;;23.80;9.87;;;;;;;7.79;100.00;101958.22;3524616;82;98754;-88
2022/11/11 19:00:42;;;;;;;22.60;9.03;;;;;;;7.78;100.00;101963.44;3565282;81;25914;-89
2022/11/11 19:05:43;;;;;;;25.60;11.23;;;;;;;7.78;100.00;101967.55;3670174;79;98521;-88
2022/11/11 19:10:44;;;;;;;19.10;9.30;;;;;;;7.79;100.00;101968.59;3657587;79;26346;-88
2022/11/11 19:15:45;;;;;;;17.67;9.03;;;;;;;7.84;100.00;101974.48;3650990;79;99065;-89
2022/11/11 19:20:48;;;;;;;17.52;9.02;;;;;;;7.86;100.00;101974.98;3657073;80;26165;-90
2022/11/11 19:25:49;;;;;;;17.98;9.00;;;;;;;7.89;100.00;101979.80;3648111;79;98866;-87
2022/11/11 19:30:50;;;;;;;17.93;8.77;;;;;;;7.89;100.00;101990.22;3658140;80;32852;-87
2022/11/11 19:35:59;;;;;;;21.33;9.33;;;;;;;7.89;100.00;101995.70;3663413;78;98879;-89
2022/11/11 19:41:08;;;;;;;19.27;8.63;;;;;;;7.89;100.00;101995.70;3695340;80;26318;-89
2022/11/11 19:46:16;;;;;;;17.62;9.53;;;;;;;7.88;100.00;101996.02;3589991;81;98861;-87
2022/11/11 19:51:19;;;;;;;20.93;9.13;;;;;;;7.88;100.00;102000.13;3692591;78;26504;-90
2022/11/11 19:56:20;;;;;;;20.45;11.88;;;;;;;7.87;100.00;102010.86;3689722;78;98500;-89
2022/11/11 20:01:24;;;;;;;17.37;9.10;;;;;;;7.84;100.00;102020.53;3704330;79;32911;-90
2022/11/11 20:06:32;;;;;;;16.17;7.97;;;;;;;7.82;100.00;102028.27;3701238;78;98834;-90
2022/11/11 20:11:37;;;;;;;20.73;10.83;;;;;;;7.82;100.00;102034.30;3707575;79;25832;-89
2022/11/11 20:16:38;;;;;;;22.02;11.55;;;;;;;7.78;100.00;102028.66;3701886;79;98911;-89
2022/11/11 20:21:43;;;;;;;25.00;11.97;;;;;;;7.75;100.00;102029.87;3707396;79;32900;-89
2022/11/11 20:26:41;;;;;;;23.20;12.33;;;;;;;7.71;100.00;102038.47;3700245;78;98604;-92
2022/11/11 20:31:42;;;;;;;22.90;10.88;;;;;;;7.68;100.00;102044.03;3702449;79;32967;-90
2022/11/11 20:36:43;;;;;;;24.97;11.33;;;;;;;7.66;100.00;102053.69;3682233;79;98998;-89
2022/11/11 20:41:43;;;;;;;22.27;11.77;;;;;;;7.62;100.00;102060.37;3710462;79;32894;-89
2022/11/11 20:46:44;;;;;;;30.97;18.20;;;;;;;7.57;100.00;102059.15;3699968;79;98519;-92
2022/11/11 20:51:45;;;;;;;32.27;15.93;;;;;;;7.52;100.00;102058.50;3703328;78;32910;-90
2022/11/11 20:56:47;;;;;;;26.90;15.43;;;;;;;7.48;100.00;102055.56;3701761;79;98548;-90
2022/11/11 21:01:48;;;;;;;24.27;13.08;;;;;;;7.44;100.00;102055.15;3714831;79;32939;-89
2022/11/11 21:06:49;;;;;;;27.73;11.73;;;;;;;7.40;100.00;102048.67;3714874;78;98506;-89
2022/11/11 21:11:50;;;;;;;21.53;10.53;;;;;;;7.34;100.00;102056.25;3725068;79;31637;-90
2022/11/11 21:16:51;;;;;;;18.07;10.38;;;;;;;7.29;100.00;102049.53;3719026;79;98782;-90
2022/11/11 21:21:51;;;;;;;19.70;9.57;;;;;;;7.24;100.00;102046.94;3722001;79;31568;-90
2022/11/11 21:26:53;;;;;;;19.43;9.53;;;;;;;7.18;100.00;102039.98;3654187;80;98433;-89
2022/11/11 21:31:54;;;;;;;21.83;10.70;;;;;;;7.15;100.00;102035.70;3673673;80;31718;-88
2022/11/11 21:36:54;;;;;;;18.87;10.47;;;;;;;7.08;100.00;102032.59;3663504;80;98539;-89
2022/11/11 21:41:55;;;;;;;20.88;8.90;;;;;;;7.04;100.00;102045.31;3674843;79;30079;-88
2022/11/11 21:46:56;;;;;;;16.17;8.63;;;;;;;6.99;100.00;102039.39;3702412;79;98248;-88
2022/11/11 21:52:01;;;;;;;16.40;8.37;;;;;;;6.94;100.00;102035.44;3723145;79;26177;-88
2022/11/11 21:57:02;;;;;;;16.07;7.90;;;;;;;6.88;100.00;102038.03;3709675;79;98388;-88
2022/11/11 22:02:03;;;;;;;17.30;8.33;;;;;;;6.84;100.00;102038.44;3608169;80;35244;-90
2022/11/11 22:07:04;;;;;;;17.87;8.77;;;;;;;6.80;100.00;102037.98;3681075;80;98705;-89
2022/11/11 22:12:05;;;;;;;21.67;8.70;;;;;;;6.76;100.00;102031.55;3693861;79;35336;-88
2022/11/11 22:17:05;;;;;;;15.23;7.73;;;;;;;6.70;100.00;102030.06;3684427;80;98434;-88
2022/11/11 22:22:06;;;;;;;18.47;9.57;;;;;;;6.67;100.00;102034.77;3692010;80;35981;-93
2022/11/11 22:27:07;;;;;;;17.10;7.93;;;;;;;6.62;100.00;102023.41;3656327;79;98567;-94
2022/11/11 22:32:08;;;;;;;16.93;9.23;;;;;;;6.59;100.00;102034.95;3659110;79;34804;-91
2022/11/11 22:37:08;;;;;;;20.07;8.63;;;;;;;6.57;100.00;102031.73;3653940;79;98550;-92
2022/11/11 22:42:09;;;;;;;15.90;7.40;;;;;;;6.56;100.00;102038.34;3657540;80;26130;-91
2022/11/11 22:47:10;;;;;;;22.57;9.50;;;;;;;6.54;100.00;102035.08;3658734;79;98708;-93
2022/11/11 22:52:11;;;;;;;17.37;8.87;;;;;;;6.54;100.00;102031.55;3662849;80;32395;-92
2022/11/11 22:57:11;;;;;;;19.53;8.50;;;;;;;6.51;100.00;102028.88;3652455;79;98545;-93
2022/11/11 23:02:12;;;;;;;17.43;8.10;;;;;;;6.50;100.00;102030.55;3658180;79;32826;-93
2022/11/11 23:07:13;;;;;;;20.62;9.46;;;;;;;6.48;100.00;102028.12;3659384;79;98618;-93
2022/11/11 23:12:14;;;;;;;17.20;10.10;;;;;;;6.47;100.00;102026.52;3665703;79;28919;-93
2022/11/11 23:17:14;;;;;;;25.97;14.00;;;;;;;6.46;100.00;102033.11;3691236;79;98492;-93
2022/11/11 23:22:15;;;;;;;33.47;20.80;;;;;;;6.49;100.00;102031.68;3705635;79;26370;-93
2022/11/11 23:27:16;;;;;;;33.27;20.80;;;;;;;6.47;100.00;102029.80;3700167;79;98656;-93
2022/11/11 23:32:17;;;;;;;34.20;19.15;;;;;;;6.44;100.00;102029.86;3704721;79;27236;-93
2022/11/11 23:37:18;;;;;;;33.67;18.33;;;;;;;6.44;100.00;102033.17;3690629;79;98814;-94
2022/11/11 23:42:18;;;;;;;31.57;16.50;;;;;;;6.43;100.00;102026.09;3704729;79;25795;-94
2022/11/11 23:47:19;;;;;;;32.33;18.30;;;;;;;6.39;100.00;102034.08;3699631;79;98556;-94
2022/11/11 23:52:20;;;;;;;36.23;18.33;;;;;;;6.37;100.00;102024.02;3709440;79;32938;-94
2022/11/11 23:57:21;;;;;;;33.30;19.17;;;;;;;6.35;100.00;102024.08;3663626;79;98559;-94
